createdAt,value
2022-12-17T00:00:01.777Z,141280.94
2022-12-17T00:02:49.928Z,141260.56
2022-12-17T00:05:35.359Z,141266.53
2022-12-17T00:08:20.979Z,141283.31
2022-12-17T00:11:06.449Z,141279.72
2022-12-17T00:13:52.166Z,141292.88
2022-12-17T00:16:37.991Z,141307.19
2022-12-17T00:19:23.544Z,141311.97
2022-12-17T00:22:09.740Z,141321.59
2022-12-17T00:24:56.401Z,141341.94
2022-12-17T00:27:41.982Z,141350.31
2022-12-17T00:30:31.737Z,141359.91
2022-12-17T00:33:17.416Z,141355.09
2022-12-17T00:36:02.853Z,141367.09
2022-12-17T00:38:48.658Z,141357.53
2022-12-17T00:41:34.125Z,141346.72
2022-12-17T00:44:19.621Z,141343.13
2022-12-17T00:47:05.482Z,141316.81
2022-12-17T00:49:51.909Z,141304.81
2022-12-17T00:52:37.602Z,141290.50
2022-12-17T00:55:23.601Z,141297.66
2022-12-17T00:58:12.661Z,141297.66
2022-12-17T01:00:58.008Z,141292.88
2022-12-17T01:03:43.580Z,141288.09
2022-12-17T01:06:29.204Z,141294.06
2022-12-17T01:09:14.993Z,141300.03
2022-12-17T01:12:00.718Z,141295.28
2022-12-17T01:14:46.373Z,141316.81
2022-12-17T01:17:31.905Z,141309.59
2022-12-17T01:20:22.002Z,141311.97
2022-12-17T01:23:08.463Z,141316.81
2022-12-17T01:25:53.911Z,141323.97
2022-12-17T01:28:42.752Z,141304.81
2022-12-17T01:31:34.277Z,141304.81
2022-12-17T01:34:20.989Z,141280.94
2022-12-17T01:37:06.675Z,141341.94
2022-12-17T01:39:52.264Z,141327.56
2022-12-17T01:42:37.947Z,141328.75
2022-12-17T01:45:23.963Z,141322.78
2022-12-17T01:48:14.715Z,141344.34
2022-12-17T01:51:02.427Z,141340.75
2022-12-17T01:53:49.565Z,141335.97
2022-12-17T01:56:35.812Z,141347.91
2022-12-17T01:59:22.005Z,141331.16
2022-12-17T02:02:07.803Z,141338.31
2022-12-17T02:04:53.748Z,141309.59
2022-12-17T02:07:48.046Z,141304.81
2022-12-17T02:10:48.695Z,141268.94
2022-12-17T02:13:37.255Z,141242.59
2022-12-17T02:20:38.068Z,141203.09
2022-12-17T02:23:23.590Z,141187.56
2022-12-17T02:26:12.094Z,141187.56
2022-12-17T02:29:01.166Z,141182.78
2022-12-17T02:31:48.237Z,141175.56
2022-12-17T02:34:33.909Z,141168.38
2022-12-17T02:37:19.538Z,141163.59
2022-12-17T02:40:05.241Z,141167.19
2022-12-17T02:42:52.879Z,141158.81
2022-12-17T02:45:38.715Z,141139.69
2022-12-17T02:48:26.187Z,141115.75
2022-12-17T02:51:11.878Z,141127.69
2022-12-17T02:54:04.711Z,141125.31
2022-12-17T02:56:51.218Z,141132.47
2022-12-17T02:59:36.878Z,141125.31
2022-12-17T03:02:29.894Z,141121.72
2022-12-17T03:05:43.273Z,141115.75
2022-12-17T03:08:20.711Z,141106.19
2022-12-17T03:11:06.195Z,141091.81
2022-12-17T03:13:51.687Z,141064.28
2022-12-17T03:16:40.357Z,141067.88
2022-12-17T03:19:27.636Z,141073.84
2022-12-17T03:22:14.198Z,141078.63
2022-12-17T03:24:59.665Z,141075.09
2022-12-17T03:27:45.227Z,141070.31
2022-12-17T03:30:35.556Z,141077.44
2022-12-17T03:33:21.728Z,141075.09
2022-12-17T03:36:07.086Z,141072.69
2022-12-17T03:38:52.777Z,141082.25
2022-12-17T03:41:38.400Z,141096.59
2022-12-17T03:44:24.034Z,141103.78
2022-12-17T03:47:09.613Z,141109.75
2022-12-17T03:49:55.365Z,141124.13
2022-12-17T03:52:41.008Z,141152.84
2022-12-17T03:55:26.586Z,141126.50
2022-12-17T03:58:25.862Z,141120.53
2022-12-17T04:01:13.071Z,141115.75
2022-12-17T04:03:58.805Z,141096.59
2022-12-17T04:06:44.482Z,141079.88
2022-12-17T04:09:30.251Z,141090.63
2022-12-17T04:12:16.067Z,141106.19
2022-12-17T04:15:01.613Z,141103.78
2022-12-17T04:17:47.316Z,141108.56
2022-12-17T04:20:32.791Z,141082.25
2022-12-17T04:23:18.458Z,141075.09
2022-12-17T04:26:03.868Z,141071.50
2022-12-17T04:28:49.417Z,141058.31
2022-12-17T04:31:35.163Z,141069.06
2022-12-17T04:34:20.697Z,141051.13
2022-12-17T04:37:06.229Z,141009.28
2022-12-17T04:39:51.836Z,141000.91
2022-12-17T04:42:37.832Z,140977.00
2022-12-17T04:45:23.489Z,140988.94
2022-12-17T04:48:09.012Z,140997.31
2022-12-17T04:50:54.294Z,140986.56
2022-12-17T04:53:39.983Z,140979.38
2022-12-17T04:56:25.544Z,140965.03
2022-12-17T04:59:11.147Z,140955.47
2022-12-17T05:01:56.810Z,140950.69
2022-12-17T05:04:42.264Z,140939.94
2022-12-17T05:07:27.950Z,140930.34
2022-12-17T05:10:13.426Z,140930.34
2022-12-17T05:12:59.185Z,140931.56
2022-12-17T05:15:49.751Z,140929.16
2022-12-17T05:18:38.489Z,140930.34
2022-12-17T05:21:23.902Z,140924.38
2022-12-17T05:24:09.609Z,140919.59
2022-12-17T05:26:55.096Z,140922.00
2022-12-17T05:29:42.733Z,140878.94
2022-12-17T05:32:28.542Z,140929.16
2022-12-17T05:35:13.965Z,140902.84
2022-12-17T05:37:59.671Z,140901.66
2022-12-17T05:40:45.229Z,140899.25
2022-12-17T05:43:31.599Z,140881.31
2022-12-17T05:46:17.258Z,140865.81
2022-12-17T05:49:02.778Z,140881.31
2022-12-17T05:51:48.450Z,140859.84
2022-12-17T05:54:34.052Z,140857.47
2022-12-17T05:57:19.677Z,140864.63
2022-12-17T06:00:05.297Z,140878.94
2022-12-17T06:02:57.964Z,140888.50
2022-12-17T06:05:43.718Z,140890.91
2022-12-17T06:08:29.042Z,140895.69
2022-12-17T06:11:16.805Z,140900.47
2022-12-17T06:14:02.328Z,140890.91
2022-12-17T06:16:47.951Z,140890.91
2022-12-17T06:19:33.459Z,140904.06
2022-12-17T06:22:19.703Z,140914.81
2022-12-17T06:25:05.547Z,140910.03
2022-12-17T06:27:50.881Z,140912.41
2022-12-17T06:30:36.513Z,140924.38
2022-12-17T06:33:25.744Z,140912.41
2022-12-17T06:36:18.097Z,140918.41
2022-12-17T06:39:07.292Z,140955.47
2022-12-17T06:41:52.708Z,140947.09
2022-12-17T06:44:38.431Z,140969.81
2022-12-17T06:47:24.033Z,140949.50
2022-12-17T06:50:09.680Z,140974.59
2022-12-17T06:52:55.230Z,140991.34
2022-12-17T06:55:40.779Z,140996.13
2022-12-17T06:58:27.237Z,140994.94
2022-12-17T07:01:12.907Z,141000.91
2022-12-17T07:03:58.305Z,141016.47
2022-12-17T07:06:44.117Z,141023.63
2022-12-17T07:09:29.719Z,141022.44
2022-12-17T07:12:15.470Z,141015.25
2022-12-17T07:15:00.818Z,141045.16
2022-12-17T07:17:46.431Z,141055.91
2022-12-17T07:20:32.085Z,141082.25
2022-12-17T07:23:17.892Z,141082.25
2022-12-17T07:26:03.278Z,141084.66
2022-12-17T07:28:48.857Z,141065.53
2022-12-17T07:31:34.630Z,141091.81
2022-12-17T07:34:20.171Z,141106.19
2022-12-17T07:37:05.776Z,141096.59
2022-12-17T07:39:51.624Z,141118.13
2022-12-17T07:42:37.249Z,141120.53
2022-12-17T07:45:22.973Z,141139.69
2022-12-17T07:48:12.157Z,141156.44
2022-12-17T07:50:57.413Z,141134.91
2022-12-17T07:53:43.015Z,141139.69
2022-12-17T07:56:28.660Z,141156.44
2022-12-17T07:59:14.206Z,141160.03
2022-12-17T08:01:59.981Z,141146.88
2022-12-17T08:04:45.335Z,141148.06
2022-12-17T08:07:30.902Z,141162.41
2022-12-17T08:10:16.511Z,141156.44
2022-12-17T08:13:14.214Z,141189.94
2022-12-17T08:16:00.246Z,141185.16
2022-12-17T08:18:45.832Z,141176.75
2022-12-17T08:21:31.494Z,141200.72
2022-12-17T08:24:17.092Z,141235.41
2022-12-17T08:27:02.643Z,141259.38
2022-12-17T08:29:48.129Z,141264.16
2022-12-17T08:32:33.608Z,141228.25
2022-12-17T08:35:19.240Z,141008.09
2022-12-17T08:38:04.920Z,141247.41
2022-12-17T08:40:50.501Z,141211.47
2022-12-17T08:43:36.429Z,141225.84
2022-12-17T08:46:22.092Z,141252.19
2022-12-17T08:49:07.841Z,141297.66
2022-12-17T08:51:53.314Z,141307.19
2022-12-17T08:54:38.995Z,141364.69
2022-12-17T08:57:32.022Z,141371.88
2022-12-17T09:00:17.630Z,141391.03
2022-12-17T09:03:03.234Z,141411.41
2022-12-17T09:05:48.673Z,141431.75
2022-12-17T09:08:34.173Z,141417.41
2022-12-17T09:11:19.833Z,141438.97
2022-12-17T09:14:05.495Z,141434.19
2022-12-17T09:16:51.248Z,141470.13
2022-12-17T09:19:36.717Z,141492.88
2022-12-17T09:22:22.353Z,141508.44
2022-12-17T09:25:07.779Z,141504.84
2022-12-17T09:27:53.499Z,141560.00
2022-12-17T09:30:39.066Z,141568.38
2022-12-17T09:33:24.507Z,141546.81
2022-12-17T09:36:10.202Z,141545.56
2022-12-17T09:38:55.867Z,141570.75
2022-12-17T09:41:51.510Z,141536.00
2022-12-17T09:44:53.217Z,141605.53
2022-12-17T09:47:38.899Z,141685.84
2022-12-17T09:50:30.806Z,141657.06
2022-12-17T09:53:17.422Z,141718.22
2022-12-17T09:56:05.702Z,141717.03
2022-12-17T09:58:53.899Z,141759.00
2022-12-17T10:01:39.755Z,141764.97
2022-12-17T10:04:29.707Z,141785.41
2022-12-17T10:07:15.297Z,141798.59
2022-12-17T10:10:00.824Z,141822.56
2022-12-17T10:12:46.424Z,141848.97
2022-12-17T10:15:33.245Z,141846.56
2022-12-17T10:18:26.262Z,141834.59
2022-12-17T10:21:20.020Z,141877.69
2022-12-17T10:24:05.882Z,141894.50
2022-12-17T10:26:52.345Z,141895.69
2022-12-17T10:29:45.474Z,141934.13
2022-12-17T10:32:32.594Z,141976.13
2022-12-17T10:35:18.296Z,141980.91
2022-12-17T10:38:03.794Z,141962.91
2022-12-17T10:40:51.499Z,142009.75
2022-12-17T10:43:50.253Z,142019.34
2022-12-17T10:46:46.549Z,142051.75
2022-12-17T10:49:42.535Z,142064.97
2022-12-17T10:52:57.613Z,142086.59
2022-12-17T10:55:45.498Z,142117.81
2022-12-17T10:58:35.398Z,142122.63
2022-12-17T11:01:21.773Z,142132.22
2022-12-17T11:04:09.201Z,142167.06
2022-12-17T11:07:07.012Z,142186.28
2022-12-17T11:10:08.645Z,142216.28
2022-12-17T11:13:02.076Z,142199.50
2022-12-17T11:15:54.809Z,142217.50
2022-12-17T11:18:47.311Z,142249.94
2022-12-17T11:21:39.120Z,142288.38
2022-12-17T11:24:29.702Z,142294.41
2022-12-17T11:27:16.406Z,142307.63
2022-12-17T11:30:01.959Z,142340.06
2022-12-17T11:32:55.218Z,142352.09
2022-12-17T11:36:01.502Z,142394.16
2022-12-17T11:39:09.421Z,142389.34
2022-12-17T11:42:14.153Z,142406.19
2022-12-17T11:45:09.418Z,142437.47
2022-12-17T11:48:04.366Z,142475.91
2022-12-17T11:50:56.359Z,142498.75
2022-12-17T11:54:08.100Z,142520.41
2022-12-17T11:57:04.816Z,142531.22
2022-12-17T11:59:57.007Z,142557.69
2022-12-17T12:02:53.873Z,142576.94
2022-12-17T12:05:49.814Z,142588.97
2022-12-17T12:08:44.868Z,142605.81
2022-12-17T12:11:51.430Z,142625.06
2022-12-17T12:14:55.875Z,142639.50
2022-12-17T12:17:51.569Z,142635.91
2022-12-17T12:20:37.107Z,142659.97
2022-12-17T12:23:25.912Z,142673.22
2022-12-17T12:26:31.520Z,142694.88
2022-12-17T12:29:35.990Z,142714.13
2022-12-17T12:32:26.030Z,142734.56
2022-12-17T12:35:13.079Z,142755.03
2022-12-17T12:37:58.953Z,142774.28
2022-12-17T12:40:53.779Z,142786.34
2022-12-17T12:43:42.387Z,142794.78
2022-12-17T12:46:34.586Z,142810.41
2022-12-17T12:49:20.237Z,142812.84
2022-12-17T12:52:06.387Z,142809.22
2022-12-17T12:55:04.160Z,142842.91
2022-12-17T12:57:54.124Z,142874.22
2022-12-17T13:00:42.901Z,142880.25
2022-12-17T13:03:43.840Z,142873.03
2022-12-17T13:06:11.868Z,142893.50
2022-12-17T13:08:39.104Z,142893.50
2022-12-17T13:11:11.077Z,142918.78
2022-12-17T13:13:55.645Z,142928.41
2022-12-17T13:16:31.677Z,142933.22
2022-12-17T13:19:03.218Z,142959.72
2022-12-17T13:21:31.459Z,142974.19
2022-12-17T13:23:58.895Z,142980.22
2022-12-17T13:26:41.285Z,142989.84
2022-12-17T13:29:13.131Z,142986.25
2022-12-17T13:31:51.097Z,142982.63
2022-12-17T13:34:23.197Z,142993.47
2022-12-17T13:36:49.989Z,142995.88
2022-12-17T13:39:25.906Z,143004.31
2022-12-17T13:41:53.384Z,143000.69
2022-12-17T13:44:25.297Z,143007.94
2022-12-17T13:46:53.513Z,142987.44
2022-12-17T13:49:20.335Z,142998.31
2022-12-17T13:51:47.634Z,142986.25
2022-12-17T13:54:16.120Z,142995.88
2022-12-17T13:56:42.976Z,142988.66
2022-12-17T13:59:20.321Z,142992.25
2022-12-17T14:01:48.904Z,142994.66
2022-12-17T14:04:22.924Z,142992.25
2022-12-17T14:06:51.533Z,143003.13
2022-12-17T14:09:19.704Z,142991.06
2022-12-17T14:12:05.415Z,142998.31
2022-12-17T14:14:33.827Z,142992.25
2022-12-17T14:17:01.047Z,142994.66
2022-12-17T14:19:29.057Z,143098.31
2022-12-17T14:21:56.483Z,143092.28
2022-12-17T14:24:27.066Z,143113.94
2022-12-17T14:26:55.459Z,143304.41
2022-12-17T14:29:23.607Z,143229.69
2022-12-17T14:32:01.114Z,143112.75
2022-12-17T14:34:28.002Z,143032.00
2022-12-17T14:36:56.536Z,142986.25
2022-12-17T14:39:26.362Z,142945.28
2022-12-17T14:42:12.830Z,142917.59
2022-12-17T14:44:51.146Z,142885.06
2022-12-17T14:47:23.503Z,142860.97
2022-12-17T14:49:55.841Z,142846.53
2022-12-17T14:52:28.134Z,142838.09
2022-12-17T14:54:55.197Z,142810.41
2022-12-17T14:57:22.782Z,142803.22
2022-12-17T14:59:50.608Z,142791.16
2022-12-17T15:02:26.663Z,142777.91
2022-12-17T15:04:56.416Z,142771.91
2022-12-17T15:07:25.283Z,142759.84
2022-12-17T15:09:53.139Z,142732.19
2022-12-17T15:12:21.012Z,142727.38
2022-12-17T15:14:48.112Z,142704.50
2022-12-17T15:17:15.417Z,142685.22
2022-12-17T15:19:42.465Z,142672.03
2022-12-17T15:22:13.992Z,142670.78
2022-12-17T15:24:40.840Z,142647.91
2022-12-17T15:27:09.416Z,142639.50
2022-12-17T15:29:36.283Z,142641.91
2022-12-17T15:32:03.465Z,142637.13
2022-12-17T15:34:30.336Z,142629.88
2022-12-17T15:36:57.156Z,142608.22
2022-12-17T15:39:23.985Z,142588.97
2022-12-17T15:42:09.599Z,142575.72
2022-12-17T15:44:36.395Z,142558.88
2022-12-17T15:47:03.205Z,142531.22
2022-12-17T15:49:30.024Z,142514.41
2022-12-17T15:51:56.811Z,142496.38
2022-12-17T15:54:25.084Z,142491.56
2022-12-17T15:56:53.425Z,142475.91
2022-12-17T15:59:20.295Z,142466.31
2022-12-17T16:01:47.364Z,142461.50
2022-12-17T16:04:20.296Z,142450.66
2022-12-17T16:06:51.489Z,142426.63
2022-12-17T16:09:18.316Z,142425.44
2022-12-17T16:11:45.339Z,142406.19
2022-12-17T16:14:12.160Z,142394.16
2022-12-17T16:16:38.947Z,142402.59
2022-12-17T16:19:05.866Z,142396.53
2022-12-17T16:21:32.658Z,142382.13
2022-12-17T16:23:59.583Z,142367.72
2022-12-17T16:26:26.646Z,142340.06
2022-12-17T16:28:53.467Z,142330.47
2022-12-17T16:31:20.315Z,142336.47
2022-12-17T16:33:48.116Z,142324.41
2022-12-17T16:36:16.358Z,142305.22
2022-12-17T16:39:01.343Z,142301.59
2022-12-17T16:41:28.183Z,142282.38
2022-12-17T16:43:55.145Z,142266.78
2022-12-17T16:46:26.808Z,142252.31
2022-12-17T16:48:54.399Z,142231.91
2022-12-17T16:51:28.455Z,142213.91
2022-12-17T16:53:57.090Z,142204.28
2022-12-17T16:56:25.614Z,142192.28
2022-12-17T16:58:52.665Z,142189.88
2022-12-17T17:01:20.687Z,142199.50
2022-12-17T17:03:47.822Z,142182.66
2022-12-17T17:06:15.599Z,142175.44
2022-12-17T17:08:42.850Z,142174.25
2022-12-17T17:11:21.260Z,142157.41
2022-12-17T17:13:49.528Z,142127.41
2022-12-17T17:16:17.199Z,142115.41
2022-12-17T17:18:44.160Z,142141.81
2022-12-17T17:21:20.284Z,142132.22
2022-12-17T17:23:48.393Z,142113.03
2022-12-17T17:26:15.805Z,142099.81
2022-12-17T17:28:42.719Z,142106.97
2022-12-17T17:31:11.291Z,142084.16
2022-12-17T17:33:39.496Z,142077.00
2022-12-17T17:36:07.728Z,142068.59
2022-12-17T17:38:35.934Z,142049.34
2022-12-17T17:41:03.433Z,142054.13
2022-12-17T17:43:30.492Z,142038.56
2022-12-17T17:46:04.338Z,142024.16
2022-12-17T17:48:34.875Z,142006.16
2022-12-17T17:51:07.196Z,141994.13
2022-12-17T17:53:34.426Z,142000.16
2022-12-17T17:56:14.687Z,141715.81
2022-12-17T17:58:42.609Z,141985.72
2022-12-17T18:01:10.828Z,141973.75
2022-12-17T18:03:38.056Z,141973.75
2022-12-17T18:06:07.069Z,141956.94
2022-12-17T18:08:35.316Z,141973.75
2022-12-17T18:11:03.189Z,141979.72
2022-12-17T18:13:48.463Z,141961.72
2022-12-17T18:16:15.849Z,141983.34
2022-12-17T18:18:42.687Z,141977.31
2022-12-17T18:21:11.202Z,141810.56
2022-12-17T18:23:38.217Z,141932.94
2022-12-17T18:26:12.692Z,141920.91
2022-12-17T18:28:42.028Z,141899.31
2022-12-17T18:31:13.418Z,141894.50
2022-12-17T18:33:41.747Z,141887.28
2022-12-17T18:36:09.797Z,141930.50
2022-12-17T18:38:37.139Z,141930.50
2022-12-17T18:41:29.998Z,141889.72
2022-12-17T18:43:58.438Z,141904.09
2022-12-17T18:46:26.177Z,141839.38
2022-12-17T18:48:53.663Z,141848.97
2022-12-17T18:51:21.417Z,141808.19
2022-12-17T18:53:49.048Z,141793.81
2022-12-17T18:56:31.737Z,141791.38
2022-12-17T18:59:02.897Z,141772.19
2022-12-17T19:01:31.755Z,141768.59
2022-12-17T19:04:01.179Z,141762.59
2022-12-17T19:06:28.329Z,141750.59
2022-12-17T19:08:55.132Z,141755.41
2022-12-17T19:11:22.400Z,141798.59
2022-12-17T19:13:49.738Z,141785.41
2022-12-17T19:16:18.402Z,141769.78
2022-12-17T19:18:45.661Z,141750.59
2022-12-17T19:21:14.906Z,141745.81
2022-12-17T19:23:42.099Z,141721.84
2022-12-17T19:26:10.122Z,141696.63
2022-12-17T19:28:37.905Z,141689.44
2022-12-17T19:31:05.054Z,141685.84
2022-12-17T19:33:31.899Z,141683.44
2022-12-17T19:36:01.101Z,141683.44
2022-12-17T19:38:28.968Z,141657.06
2022-12-17T19:40:55.780Z,141654.69
2022-12-17T19:43:24.672Z,141621.09
2022-12-17T19:45:51.531Z,141625.88
2022-12-17T19:48:18.378Z,141635.47
2022-12-17T19:50:55.087Z,141625.88
2022-12-17T19:53:27.063Z,141623.50
2022-12-17T19:55:55.403Z,141615.13
2022-12-17T19:58:23.199Z,141615.13
2022-12-17T20:00:50.421Z,141616.31
2022-12-17T20:03:17.879Z,141613.94
2022-12-17T20:05:45.658Z,141611.50
2022-12-17T20:08:12.681Z,141603.13
2022-12-17T20:10:39.606Z,141484.47
2022-12-17T20:13:06.504Z,141580.34
2022-12-17T20:15:33.333Z,141565.97
2022-12-17T20:18:00.123Z,141560.00
2022-12-17T20:20:26.987Z,141553.97
2022-12-17T20:22:53.765Z,141560.00
2022-12-17T20:25:20.606Z,141537.22
2022-12-17T20:27:47.448Z,141524.03
2022-12-17T20:30:14.290Z,141506.06
2022-12-17T20:32:41.056Z,141485.69
2022-12-17T20:35:08.433Z,141470.13
2022-12-17T20:37:35.272Z,141471.31
2022-12-17T20:40:02.128Z,141465.34
2022-12-17T20:42:28.940Z,141460.53
2022-12-17T20:44:56.912Z,141465.34
2022-12-17T20:47:23.780Z,141458.13
2022-12-17T20:49:50.571Z,141467.69
2022-12-17T20:52:17.527Z,141460.53
2022-12-17T20:54:44.838Z,141448.53
2022-12-17T20:57:11.767Z,141466.50
2022-12-17T20:59:38.631Z,141453.34
2022-12-17T21:02:05.620Z,141436.56
2022-12-17T21:04:32.516Z,141426.97
2022-12-17T21:06:59.322Z,141426.97
2022-12-17T21:09:26.134Z,141422.19
2022-12-17T21:11:53.106Z,141410.19
2022-12-17T21:14:19.908Z,141400.63
2022-12-17T21:16:46.809Z,141379.03
2022-12-17T21:19:15.502Z,141364.69
2022-12-17T21:21:42.490Z,141359.91
2022-12-17T21:24:09.931Z,141363.50
2022-12-17T21:26:38.576Z,141355.09
2022-12-17T21:29:06.300Z,141344.34
2022-12-17T21:31:35.342Z,141345.53
2022-12-17T21:34:03.722Z,141347.91
2022-12-17T21:36:32.238Z,141340.75
2022-12-17T21:38:59.310Z,141335.97
2022-12-17T21:41:27.814Z,141318.00
2022-12-17T21:43:59.118Z,141307.19
2022-12-17T21:46:29.606Z,141300.03
2022-12-17T21:48:57.570Z,141294.06
2022-12-17T21:51:24.449Z,141276.09
2022-12-17T21:53:55.856Z,141272.56
2022-12-17T21:56:23.246Z,141268.94
2022-12-17T22:03:06.103Z,141258.16
2022-12-17T22:05:37.941Z,141235.41
2022-12-17T22:08:04.971Z,141225.84
2022-12-17T22:10:35.928Z,141006.88
2022-12-17T22:13:29.688Z,141233.03
2022-12-17T22:15:56.615Z,141240.19
2022-12-17T22:18:24.922Z,141236.63
2022-12-17T22:20:58.453Z,141243.78
2022-12-17T22:23:25.585Z,141222.25
2022-12-17T22:25:52.812Z,141228.25
2022-12-17T22:28:19.659Z,141234.22
2022-12-17T22:31:05.341Z,141228.25
2022-12-17T22:33:56.769Z,141221.06
2022-12-17T22:38:48.935Z,141218.69
2022-12-17T22:44:33.847Z,141213.91
2022-12-17T22:44:39.039Z,141205.50
2022-12-17T22:45:09.757Z,141216.28
2022-12-17T22:47:37.756Z,141218.69
2022-12-17T22:50:04.776Z,141211.47
2022-12-17T22:52:32.512Z,141203.09
2022-12-17T22:54:59.516Z,141203.09
2022-12-17T22:57:36.204Z,141192.34
2022-12-17T23:00:07.331Z,141185.16
2022-12-17T23:02:34.198Z,141178.00
2022-12-17T23:05:01.044Z,141185.16
2022-12-17T23:07:31.752Z,141185.16
2022-12-17T23:09:59.004Z,141169.59
2022-12-17T23:12:44.548Z,141163.59
2022-12-17T23:15:11.404Z,141169.59
2022-12-17T23:17:38.226Z,141158.81
2022-12-17T23:20:05.286Z,141158.81
2022-12-17T23:22:32.103Z,141182.78
2022-12-17T23:24:58.935Z,141178.00
2022-12-17T23:27:25.850Z,141173.22
2022-12-17T23:29:52.664Z,141169.59
2022-12-17T23:32:19.584Z,141158.81
2022-12-17T23:34:46.397Z,141151.66
2022-12-17T23:37:13.204Z,141154.03
2022-12-17T23:39:40.066Z,141132.47
2022-12-17T23:42:06.988Z,141125.31
2022-12-17T23:44:33.801Z,141133.72
2022-12-17T23:47:00.723Z,141133.72
2022-12-17T23:49:27.544Z,141125.31
2022-12-17T23:51:54.401Z,141127.69
2022-12-17T23:54:21.224Z,141130.09
2022-12-17T23:56:48.072Z,141134.91
2022-12-17T23:59:14.891Z,141130.09
